sensor_id;sensor_type;location;lat;lon;timestamp;temperature;humidity
5828;DHT22;42583;50.240;8.444;2022-12-29T00:01:04;7.20;99.90
5828;DHT22;42583;50.240;8.444;2022-12-29T00:16:07;7.30;99.90
5828;DHT22;42583;50.240;8.444;2022-12-29T00:31:11;7.40;99.90
5828;DHT22;42583;50.240;8.444;2022-12-29T00:46:32;7.50;99.90
5828;DHT22;42583;50.240;8.444;2022-12-29T01:01:33;7.50;99.90
5828;DHT22;42583;50.240;8.444;2022-12-29T01:16:34;7.50;99.90
5828;DHT22;42583;50.240;8.444;2022-12-29T01:31:36;7.50;99.90
5828;DHT22;42583;50.240;8.444;2022-12-29T01:46:42;7.50;99.90
5828;DHT22;42583;50.240;8.444;2022-12-29T02:01:44;7.50;99.90
5828;DHT22;42583;50.240;8.444;2022-12-29T02:17:08;7.60;99.90
5828;DHT22;42583;50.240;8.444;2022-12-29T02:32:42;7.50;99.90
5828;DHT22;42583;50.240;8.444;2022-12-29T02:47:55;7.60;99.90
5828;DHT22;42583;50.240;8.444;2022-12-29T03:03:16;7.50;99.90
5828;DHT22;42583;50.240;8.444;2022-12-29T03:18:26;7.60;99.90
5828;DHT22;42583;50.240;8.444;2022-12-29T03:33:31;7.60;99.90
5828;DHT22;42583;50.240;8.444;2022-12-29T03:48:32;7.60;99.90
5828;DHT22;42583;50.240;8.444;2022-12-29T04:03:33;7.60;99.90
5828;DHT22;42583;50.240;8.444;2022-12-29T04:18:33;7.70;99.90
5828;DHT22;42583;50.240;8.444;2022-12-29T04:33:34;7.70;99.90
5828;DHT22;42583;50.240;8.444;2022-12-29T04:48:34;7.70;99.90
5828;DHT22;42583;50.240;8.444;2022-12-29T05:03:35;7.60;99.90
5828;DHT22;42583;50.240;8.444;2022-12-29T05:18:35;7.60;99.90
5828;DHT22;42583;50.240;8.444;2022-12-29T05:33:36;7.60;99.90
5828;DHT22;42583;50.240;8.444;2022-12-29T05:48:36;7.70;99.90
5828;DHT22;42583;50.240;8.444;2022-12-29T06:03:37;7.70;99.90
5828;DHT22;42583;50.240;8.444;2022-12-29T06:18:38;7.60;99.90
5828;DHT22;42583;50.240;8.444;2022-12-29T06:33:38;7.70;99.90
5828;DHT22;42583;50.240;8.444;2022-12-29T06:48:39;7.60;99.90
5828;DHT22;42583;50.240;8.444;2022-12-29T07:03:42;7.60;99.90
5828;DHT22;42583;50.240;8.444;2022-12-29T07:18:43;7.60;99.90
5828;DHT22;42583;50.240;8.444;2022-12-29T07:33:44;7.60;99.90
5828;DHT22;42583;50.240;8.444;2022-12-29T07:48:45;7.60;99.90
5828;DHT22;42583;50.240;8.444;2022-12-29T08:03:46;7.60;99.90
5828;DHT22;42583;50.240;8.444;2022-12-29T08:18:46;7.70;99.90
5828;DHT22;42583;50.240;8.444;2022-12-29T08:33:47;7.80;99.90
5828;DHT22;42583;50.240;8.444;2022-12-29T08:48:47;7.80;99.90
5828;DHT22;42583;50.240;8.444;2022-12-29T09:03:48;7.90;99.90
5828;DHT22;42583;50.240;8.444;2022-12-29T09:18:48;7.90;99.90
5828;DHT22;42583;50.240;8.444;2022-12-29T09:33:49;7.80;99.90
5828;DHT22;42583;50.240;8.444;2022-12-29T09:49:21;7.90;99.90
5828;DHT22;42583;50.240;8.444;2022-12-29T10:04:28;8.00;99.90
5828;DHT22;42583;50.240;8.444;2022-12-29T10:34:58;8.00;99.90
5828;DHT22;42583;50.240;8.444;2022-12-29T10:50:02;8.10;99.90
5828;DHT22;42583;50.240;8.444;2022-12-29T11:05:15;8.50;99.90
5828;DHT22;42583;50.240;8.444;2022-12-29T11:20:39;9.00;99.90
5828;DHT22;42583;50.240;8.444;2022-12-29T11:35:41;8.70;99.90
5828;DHT22;42583;50.240;8.444;2022-12-29T11:50:50;8.60;99.90
5828;DHT22;42583;50.240;8.444;2022-12-29T12:05:56;8.70;99.90
5828;DHT22;42583;50.240;8.444;2022-12-29T12:21:13;9.00;99.90
5828;DHT22;42583;50.240;8.444;2022-12-29T12:36:28;8.90;99.90
5828;DHT22;42583;50.240;8.444;2022-12-29T13:07:34;9.10;99.90
5828;DHT22;42583;50.240;8.444;2022-12-29T13:22:52;9.00;99.90
5828;DHT22;42583;50.240;8.444;2022-12-29T13:38:14;8.90;99.90
5828;DHT22;42583;50.240;8.444;2022-12-29T14:08:23;8.70;99.90
5828;DHT22;42583;50.240;8.444;2022-12-29T14:23:41;8.50;99.90
5828;DHT22;42583;50.240;8.444;2022-12-29T14:38:46;8.60;99.90
5828;DHT22;42583;50.240;8.444;2022-12-29T14:53:51;8.50;99.90
5828;DHT22;42583;50.240;8.444;2022-12-29T15:09:00;8.60;99.90
5828;DHT22;42583;50.240;8.444;2022-12-29T15:24:04;8.50;99.90
5828;DHT22;42583;50.240;8.444;2022-12-29T15:39:23;8.40;99.90
5828;DHT22;42583;50.240;8.444;2022-12-29T15:54:30;8.30;99.90
5828;DHT22;42583;50.240;8.444;2022-12-29T16:09:41;8.30;99.90
5828;DHT22;42583;50.240;8.444;2022-12-29T16:24:41;8.10;99.90
5828;DHT22;42583;50.240;8.444;2022-12-29T16:39:42;8.00;99.90
5828;DHT22;42583;50.240;8.444;2022-12-29T16:54:58;7.80;99.90
5828;DHT22;42583;50.240;8.444;2022-12-29T17:10:01;7.60;99.90
5828;DHT22;42583;50.240;8.444;2022-12-29T17:25:02;7.40;99.90
5828;DHT22;42583;50.240;8.444;2022-12-29T17:40:05;7.20;99.90
5828;DHT22;42583;50.240;8.444;2022-12-29T17:55:17;7.10;99.90
5828;DHT22;42583;50.240;8.444;2022-12-29T18:10:18;6.90;99.90
5828;DHT22;42583;50.240;8.444;2022-12-29T18:26:01;6.80;99.90
5828;DHT22;42583;50.240;8.444;2022-12-29T18:41:03;6.70;99.90
5828;DHT22;42583;50.240;8.444;2022-12-29T18:56:03;6.50;99.90
5828;DHT22;42583;50.240;8.444;2022-12-29T19:11:04;6.40;99.90
5828;DHT22;42583;50.240;8.444;2022-12-29T19:26:05;6.40;99.90
5828;DHT22;42583;50.240;8.444;2022-12-29T19:41:06;6.50;99.90
5828;DHT22;42583;50.240;8.444;2022-12-29T19:56:07;6.50;99.90
5828;DHT22;42583;50.240;8.444;2022-12-29T20:11:11;6.40;99.90
5828;DHT22;42583;50.240;8.444;2022-12-29T20:26:21;6.50;99.90
5828;DHT22;42583;50.240;8.444;2022-12-29T20:41:22;6.50;99.90
5828;DHT22;42583;50.240;8.444;2022-12-29T20:56:26;6.50;99.90
5828;DHT22;42583;50.240;8.444;2022-12-29T21:11:26;6.40;99.90
5828;DHT22;42583;50.240;8.444;2022-12-29T21:26:27;6.20;99.90
5828;DHT22;42583;50.240;8.444;2022-12-29T21:41:28;6.10;99.90
5828;DHT22;42583;50.240;8.444;2022-12-29T21:56:28;6.10;99.90
5828;DHT22;42583;50.240;8.444;2022-12-29T22:11:29;6.10;99.90
5828;DHT22;42583;50.240;8.444;2022-12-29T22:26:48;6.00;99.90
5828;DHT22;42583;50.240;8.444;2022-12-29T22:41:48;5.80;99.90
5828;DHT22;42583;50.240;8.444;2022-12-29T22:56:49;5.80;99.90
5828;DHT22;42583;50.240;8.444;2022-12-29T23:11:49;5.70;99.90
5828;DHT22;42583;50.240;8.444;2022-12-29T23:26:50;5.80;99.90
5828;DHT22;42583;50.240;8.444;2022-12-29T23:41:51;5.80;99.90
5828;DHT22;42583;50.240;8.444;2022-12-29T23:56:51;5.70;99.90
